サンフランシスコ の空港の天気 - METARとTAF

サンフランシスコ国際空港 ( KSFO / SFO ) - アメリカ カリフォルニア州サンマテオ郡
飛行場実況気象(Metar)
観測時間11/17 23:56 PST (11/18 07:56 UTC)
風向・風速静穏 0m/s
視程10km以上
天気現象
なし
気温16.1℃
湿度67%
気圧1016.1hPa
METARKSFO 180756Z 00000KT 10SM CLR 16/10 A3001 RMK AO2 SLP161 T01610100 402330094 $
過去の天気等 Google飛行場航空写真 Wunderground天気予報

過去48時間のMETAR

飛行場予報(TAF)
発表時間: 11/17 21:29 PST (11/18 05:29 UTC)
予報対象時間: 17日22時 PST ~ 19日4時 PST
風向・風速西南西 2m/s
視程10km以上
なし
18日4時 PST から
風向・風速不定 2m/s
視程10km以上
なし
18日6時 PST から
風向・風速北北東 2m/s
視程10km以上
なし
18日14時 PST から
風向・風速西 8m/s 瞬間風速 12m/s
視程10km以上
少しの雲 雲底高度 240m
全天の4割程度の雲 雲底高度 7620m
18日21時 PST から
風向・風速西 6m/s
視程10km以上
全天の4割程度の雲 雲底高度 240m
全天の8割程度の雲 雲底高度 7620m
18日22時 PST ~ 19日1時 PST に一時的に
全天の8割程度の雲 雲底高度 240m
全天を覆う雲 雲底高度 1220m
19日1時 PST から
風向・風速西北西 8m/s 瞬間風速 10m/s
視程10km以上
全天の4割程度の雲 雲底高度 460m
全天の8割程度の雲 雲底高度 910m
KSFO 180529Z 1806/1912 24004KT P6SM SKC
FM181200 VRB03KT P6SM SKC
FM181400 02004KT P6SM SKC
FM182200 28015G24KT P6SM FEW008 SCT250
FM190500 28012KT P6SM SCT008 BKN250
TEMPO 1906/1909 BKN008 OVC040
FM190900 29015G20KT P6SM SCT015 BKN030